My webcam  My webcam


Radar lluvias  rain snow radar


Visita nuestra red de sitios de meteo:

Template documentation
and downloads

And another site



Informes METAR proximidad


Warning: A non-numeric value encountered in /var/www/clients/client12/web25/web/weather28/metar/metarDisplay.php on line 167

Warning: A non-numeric value encountered in /var/www/clients/client12/web25/web/weather28/metar/metarDisplay.php on line 167

Warning: A non-numeric value encountered in /var/www/clients/client12/web25/web/weather28/metar/metarDisplay.php on line 167

Warning: A non-numeric value encountered in /var/www/clients/client12/web25/web/weather28/metar/metarDisplay.php on line 167

Warning: A non-numeric value encountered in /var/www/clients/client12/web25/web/weather28/metar/metarDisplay.php on line 167
   
LEXJ - Santander, Spain
Distancia hasta la estación: ESE 6 km
Actualización: 17-06-2024 02:30
Despejado  
Despejado  
   Viento: ENE 5.6 km/h
Viento: ENE 5.6 km/h
Temperatura: 18°C
Punto de rocío: 14°C
Humedad: 78%
Baromètro: 1012 hPa
Visibilidad: More than 10 km
detalles de la nube: Despejado
LEXJ 170030Z AUTO 07003KT 020V110 CAVOK 18/14 Q1012
LEBB - Bilbao/Sondica, Spain
Distancia hasta la estación: ESE 80 km
Actualización: 17-06-2024 02:30
Despejado  
Despejado  
   Viento: varía 3.7 km/h
Viento: varía 3.7 km/h
Temperatura: 16°C
Punto de rocío: 14°C
Humedad: 88%
Baromètro: 1012 hPa
Visibilidad: More than 10 km
detalles de la nube: Despejado
LEBB 170030Z AUTO VRB02KT CAVOK 16/14 Q1012
LEAS - Asturias/Aviles, Spain
Distancia hasta la estación: W 172 km
Actualización: 17-06-2024 02:30
Nubes dispersas  
Nubes dispersas  
   Viento: S 5.6 km/h
Viento: S 5.6 km/h
Temperatura: 17°C
Punto de rocío: 14°C
Humedad: 83%
Baromètro: 1011 hPa
Nublado: Nubes dispersas
Visibilidad: More than 10 km
detalles de la nube: Nubes dispersas 8700 ft
LEAS 170030Z AUTO 18003KT 9999 FEW087 17/14 Q1011
LESO - San Sebastian/Fu, Spain
Distancia hasta la estación: E 169 km
Actualización: 17-06-2024 02:30
Nubes dispersas  
Nubes dispersas  
   Viento: SE 7.4 km/h
Viento: SE 7.4 km/h
Temperatura: 19°C
Punto de rocío: 14°C
Humedad: 73%
Baromètro: 1013 hPa
Nublado: Nubes dispersas
Visibilidad: More than 10 km
detalles de la nube: Nubes dispersas 4400 ft
LESO 170030Z AUTO 13004KT 100V160 9999 FEW044 19/14 Q1013
LEVT - Vitoria, Spain
Distancia hasta la estación: ESE 114 km
Actualización: 17-06-2024 02:30
Despejado  
Despejado  
   Viento: calma
Viento: calma
Temperatura: 13°C
Punto de rocío: 11°C
Humedad: 88%
Baromètro: 1013 hPa
Visibilidad: More than 10 km
detalles de la nube: Despejado
LEVT 170030Z 00000KT CAVOK 13/11 Q1013
LEZG - Zaragoza (mil/Ci, Spain
Distancia hasta la estación: SE 307 km
Actualización: 17-06-2024 02:30
Despejado  
Despejado  
   Viento: E 22.2 km/h
Viento: E 22.2 km/h
Temperatura: 21°C
Punto de rocío: 14°C
Humedad: 64%
Baromètro: 1011 hPa
Visibilidad: More than 10 km
detalles de la nube: Despejado
LEZG 170030Z 08012KT 040V110 CAVOK 21/14 Q1011 NOSIG
LEMD - Madrid ,Spain
Distancia hasta la estación: S 334 km
Actualización: 17-06-2024 02:30
Despejado  
Despejado  
   Viento: S 9.3 km/h
Viento: S 9.3 km/h
Temperatura: 22°C
Punto de rocío: 7°C
Humedad: 38%
Baromètro: 1013 hPa
Visibilidad: More than 10 km
detalles de la nube: Despejado
LEMD 170030Z 18005KT CAVOK 22/07 Q1013 NOSIG
  

Guión original por  Saratoga-weather.org Adaptado para la plantilla por  Weerstation Leuven

Obra sujeta a una Licencia de Creative Commons

RED DE ESTACIONES DE METEOCLIMATIC

Sello de calidad

ESCTB3900000039011A